Back to Top

Language: 

My Weather Underground Personal Weather Station Historical Data with Graphs...

Delerius Weather Station Historical Data
Daily Summary for January 30, 2017 Units:  Metric    English   Both
« Previous Day
Next Day »
Daily Weekly Monthly Yearly Custom
  High: Low: Average:
Temperature: 5.9 °C 3.9 °C 4.9 °C
Dew Point: 5.6 °C 3.5 °C 4.3 °C
Humidity: 98 % 90 % 96 %
Wind Speed: 16.1 km/h 0 km/h 6 km/h
Wind Gust: -1607.7 km/h - -
Wind:- - SSE
Pressure: 1012.8 hPa 1007.7 hPa -
Precipitation: 0 mm    
Historical Graphs
 
 
Tabular Data for January 30, 2017
Time Temperature Dew Point Pressure Wind Wind Speed Wind Gust Humidity Rainfall Rate (Hourly) solar Conditions
00:01 4.4 °C 4.1 °C 1007.7 hPa NW 3.2 km/h -1607.7 km/h 98 % 0.25 mm 0 W/m2
00:06 4.4 °C 4.1 °C 1007.7 hPa NW 3.2 km/h -1607.7 km/h 98 % 0.25 mm 0 W/m2
00:11 4.4 °C 4.1 °C 1007.7 hPa NW 3.2 km/h -1607.7 km/h 98 % 0.25 mm 0 W/m2
00:16 4.4 °C 4.1 °C 1007.7 hPa NW 3.2 km/h -1607.7 km/h 98 % 0.25 mm 0 W/m2
00:21 4.4 °C 4.1 °C 1007.7 hPa NW 3.2 km/h -1607.7 km/h 98 % 0.25 mm 0 W/m2
00:26 4.3 °C 3.9 °C 1007.7 hPa NNW 4.8 km/h -1607.7 km/h 97 % 0 mm 0 W/m2
00:31 4.3 °C 3.9 °C 1007.7 hPa NNW 4.8 km/h -1607.7 km/h 97 % 0 mm 0 W/m2
00:36 4.3 °C 3.9 °C 1007.7 hPa NNW 4.8 km/h -1607.7 km/h 97 % 0 mm 0 W/m2
00:41 4.3 °C 4.1 °C 1008 hPa North 4.8 km/h -1607.7 km/h 98 % 0 mm 0 W/m2
00:46 4.3 °C 4.1 °C 1008 hPa North 4.8 km/h -1607.7 km/h 98 % 0 mm 0 W/m2
00:51 4.3 °C 4.1 °C 1008 hPa North 4.8 km/h -1607.7 km/h 98 % 0 mm 0 W/m2
00:56 4.3 °C 4.1 °C 1008 hPa NW 3.2 km/h -1607.7 km/h 98 % 0 mm 0 W/m2
01:01 4.3 °C 4.1 °C 1008 hPa NW 3.2 km/h -1607.7 km/h 98 % 0 mm 0 W/m2
01:06 4.3 °C 4.1 °C 1008 hPa NW 3.2 km/h -1607.7 km/h 98 % 0 mm 0 W/m2
01:11 4.3 °C 4 °C 1008 hPa NW 4.8 km/h -1607.7 km/h 98 % 0 mm 0 W/m2
01:16 4.3 °C 4 °C 1008 hPa NW 4.8 km/h -1607.7 km/h 98 % 0 mm 0 W/m2
01:21 4.3 °C 4 °C 1008 hPa NW 4.8 km/h -1607.7 km/h 98 % 0 mm 0 W/m2
01:26 4.3 °C 4 °C 1008 hPa NW 3.2 km/h -1607.7 km/h 98 % 0 mm 0 W/m2
01:31 4.3 °C 4 °C 1008 hPa NW 3.2 km/h -1607.7 km/h 98 % 0 mm 0 W/m2
01:36 4.3 °C 4 °C 1008 hPa NW 3.2 km/h -1607.7 km/h 98 % 0 mm 0 W/m2
01:41 4.3 °C 4 °C 1008 hPa NW 3.2 km/h -1607.7 km/h 98 % 0 mm 0 W/m2
01:46 4.3 °C 4 °C 1008 hPa NW 3.2 km/h -1607.7 km/h 98 % 0 mm 0 W/m2
01:51 4.3 °C 4 °C 1008 hPa NW 3.2 km/h -1607.7 km/h 98 % 0 mm 0 W/m2
01:56 4.3 °C 4 °C 1008 hPa NW 1.6 km/h -1607.7 km/h 98 % 0 mm 0 W/m2
02:01 4.3 °C 4 °C 1008 hPa NW 1.6 km/h -1607.7 km/h 98 % 0 mm 0 W/m2
02:06 4.3 °C 4 °C 1008 hPa NW 1.6 km/h -1607.7 km/h 98 % 0 mm 0 W/m2
02:11 4.3 °C 4 °C 1008 hPa NW 1.6 km/h -1607.7 km/h 98 % 0 mm 0 W/m2
02:16 4.3 °C 4 °C 1008 hPa NW 1.6 km/h -1607.7 km/h 98 % 0 mm 0 W/m2
02:21 4.3 °C 4 °C 1008 hPa NW 1.6 km/h -1607.7 km/h 98 % 0 mm 0 W/m2
02:26 4.3 °C 4 °C 1008 hPa NW 1.6 km/h -1607.7 km/h 98 % 0 mm 0 W/m2
02:31 4.3 °C 4 °C 1008 hPa NW 1.6 km/h -1607.7 km/h 98 % 0 mm 0 W/m2
02:36 4.3 °C 4 °C 1008 hPa NW 1.6 km/h -1607.7 km/h 98 % 0 mm 0 W/m2
02:41 4.3 °C 4 °C 1008.4 hPa NW 1.6 km/h -1607.7 km/h 98 % 0 mm 0 W/m2
02:46 4.3 °C 4 °C 1008.4 hPa NW 1.6 km/h -1607.7 km/h 98 % 0 mm 0 W/m2
02:51 4.3 °C 4 °C 1008.4 hPa NW 1.6 km/h -1607.7 km/h 98 % 0 mm 0 W/m2
02:56 4.3 °C 4.1 °C 1008.4 hPa NW 1.6 km/h -1607.7 km/h 98 % 0 mm 0 W/m2
03:01 4.3 °C 4.1 °C 1008.4 hPa NW 1.6 km/h -1607.7 km/h 98 % 0 mm 0 W/m2
03:06 4.3 °C 4.1 °C 1008.4 hPa NW 1.6 km/h -1607.7 km/h 98 % 0 mm 0 W/m2
03:11 4.3 °C 4.1 °C 1008.4 hPa NNW 1.6 km/h -1607.7 km/h 98 % 0 mm 0 W/m2
03:16 4.3 °C 4.1 °C 1008.4 hPa NNW 1.6 km/h -1607.7 km/h 98 % 0 mm 0 W/m2
03:21 4.3 °C 4.1 °C 1008.4 hPa NNW 1.6 km/h -1607.7 km/h 98 % 0 mm 0 W/m2
03:26 4.3 °C 4.1 °C 1008.7 hPa NNW 1.6 km/h -1607.7 km/h 98 % 0 mm 0 W/m2
03:31 4.3 °C 4.1 °C 1008.7 hPa NNW 1.6 km/h -1607.7 km/h 98 % 0 mm 0 W/m2
03:36 4.3 °C 4.1 °C 1008.7 hPa NNW 1.6 km/h -1607.7 km/h 98 % 0 mm 0 W/m2
03:41 4.3 °C 4.1 °C 1008.7 hPa NW 3.2 km/h -1607.7 km/h 98 % 0 mm 0 W/m2
03:46 4.3 °C 4.1 °C 1008.7 hPa NW 3.2 km/h -1607.7 km/h 98 % 0 mm 0 W/m2
03:51 4.3 °C 4.1 °C 1008.7 hPa NW 3.2 km/h -1607.7 km/h 98 % 0 mm 0 W/m2
03:56 4.3 °C 4 °C 1009 hPa Calm   -1607.7 km/h 98 % 0 mm 0 W/m2
04:01 4.3 °C 4 °C 1009 hPa Calm   -1607.7 km/h 98 % 0 mm 0 W/m2
04:06 4.3 °C 4 °C 1009 hPa Calm   -1607.7 km/h 98 % 0 mm 0 W/m2
04:11 4.3 °C 4 °C 1009 hPa Calm   -1607.7 km/h 98 % 0 mm 0 W/m2
04:16 4.3 °C 4 °C 1009 hPa Calm   -1607.7 km/h 98 % 0 mm 0 W/m2
04:21 4.3 °C 4 °C 1009 hPa Calm   -1607.7 km/h 98 % 0 mm 0 W/m2
04:26 4.3 °C 4 °C 1009 hPa NNW 1.6 km/h -1607.7 km/h 98 % 0 mm 0 W/m2
04:31 4.3 °C 4 °C 1009 hPa NNW 1.6 km/h -1607.7 km/h 98 % 0 mm 0 W/m2
04:36 4.3 °C 4 °C 1009 hPa NNW 1.6 km/h -1607.7 km/h 98 % 0 mm 0 W/m2
04:41 4.3 °C 4 °C 1009.4 hPa North 3.2 km/h -1607.7 km/h 98 % 0 mm 0 W/m2
04:46 4.3 °C 4 °C 1009.4 hPa North 3.2 km/h -1607.7 km/h 98 % 0 mm 0 W/m2
04:51 4.3 °C 4 °C 1009.4 hPa North 3.2 km/h -1607.7 km/h 98 % 0 mm 0 W/m2
04:56 4.2 °C 3.9 °C 1009.4 hPa North 8 km/h -1607.7 km/h 98 % 0 mm 0 W/m2
05:01 4.2 °C 3.9 °C 1009.4 hPa North 8 km/h -1607.7 km/h 98 % 0 mm 0 W/m2
05:06 4.2 °C 3.9 °C 1009.4 hPa North 8 km/h -1607.7 km/h 98 % 0 mm 0 W/m2
05:11 4.1 °C 3.8 °C 1009.4 hPa NNE 6.4 km/h -1607.7 km/h 98 % 0 mm 0 W/m2
05:16 4.1 °C 3.8 °C 1009.4 hPa NNE 6.4 km/h -1607.7 km/h 98 % 0 mm 0 W/m2
05:21 4.1 °C 3.8 °C 1009.4 hPa NNE 6.4 km/h -1607.7 km/h 98 % 0 mm 0 W/m2
05:26 3.9 °C 3.7 °C 1009.4 hPa NNE 6.4 km/h -1607.7 km/h 98 % 0 mm 0 W/m2
05:31 3.9 °C 3.7 °C 1009.4 hPa NNE 6.4 km/h -1607.7 km/h 98 % 0 mm 0 W/m2
05:36 3.9 °C 3.7 °C 1009.4 hPa NNE 6.4 km/h -1607.7 km/h 98 % 0 mm 0 W/m2
05:41 4 °C 3.7 °C 1009.7 hPa North 3.2 km/h -1607.7 km/h 98 % 0 mm 0 W/m2
05:46 4 °C 3.7 °C 1009.7 hPa North 3.2 km/h -1607.7 km/h 98 % 0 mm 0 W/m2
05:51 4 °C 3.7 °C 1009.7 hPa North 3.2 km/h -1607.7 km/h 98 % 0 mm 0 W/m2
05:56 4 °C 3.7 °C 1009.7 hPa NNW 6.4 km/h -1607.7 km/h 98 % 0 mm 0 W/m2
06:01 4 °C 3.7 °C 1009.7 hPa NNW 6.4 km/h -1607.7 km/h 98 % 0 mm 0 W/m2
06:06 4 °C 3.7 °C 1009.7 hPa NNW 6.4 km/h -1607.7 km/h 98 % 0 mm 0 W/m2
06:11 4.1 °C 3.8 °C 1009.7 hPa North 6.4 km/h -1607.7 km/h 98 % 0 mm 0 W/m2
06:16 4.1 °C 3.8 °C 1009.7 hPa North 6.4 km/h -1607.7 km/h 98 % 0 mm 0 W/m2
06:21 4.1 °C 3.8 °C 1009.7 hPa North 6.4 km/h -1607.7 km/h 98 % 0 mm 0 W/m2
06:26 4.1 °C 3.8 °C 1009.7 hPa North 3.2 km/h -1607.7 km/h 98 % 0 mm 0 W/m2
06:31 4.1 °C 3.8 °C 1009.7 hPa North 3.2 km/h -1607.7 km/h 98 % 0 mm 0 W/m2
06:36 4.1 °C 3.8 °C 1009.7 hPa North 3.2 km/h -1607.7 km/h 98 % 0 mm 0 W/m2
06:41 4.1 °C 3.8 °C 1009.7 hPa NNE 3.2 km/h -1607.7 km/h 98 % 0 mm 0 W/m2
06:46 4.1 °C 3.8 °C 1009.7 hPa NNE 3.2 km/h -1607.7 km/h 98 % 0 mm 0 W/m2
06:51 4.1 °C 3.8 °C 1009.7 hPa NNE 3.2 km/h -1607.7 km/h 98 % 0 mm 0 W/m2
06:56 4.1 °C 3.8 °C 1010 hPa NNE 1.6 km/h -1607.7 km/h 98 % 0 mm 0 W/m2
07:01 4.1 °C 3.8 °C 1010 hPa NNE 1.6 km/h -1607.7 km/h 98 % 0 mm 0 W/m2
07:06 4.1 °C 3.8 °C 1010 hPa NNE 1.6 km/h -1607.7 km/h 98 % 0 mm 0 W/m2
07:11 4.2 °C 3.9 °C 1010 hPa Calm   -1607.7 km/h 98 % 0 mm 0 W/m2
07:16 4.2 °C 3.9 °C 1010 hPa Calm   -1607.7 km/h 98 % 0 mm 0 W/m2
07:21 4.2 °C 3.9 °C 1010 hPa Calm   -1607.7 km/h 98 % 0 mm 0 W/m2
07:26 4.2 °C 3.9 °C 1010.4 hPa Calm   -1607.7 km/h 98 % 0 mm 0 W/m2
07:31 4.2 °C 3.9 °C 1010.4 hPa Calm   -1607.7 km/h 98 % 0 mm 0 W/m2
07:36 4.2 °C 3.9 °C 1010.4 hPa Calm   -1607.7 km/h 98 % 0 mm 0 W/m2
07:41 4.2 °C 3.9 °C 1010.4 hPa Calm   -1607.7 km/h 98 % 0 mm 0 W/m2
07:46 4.2 °C 3.9 °C 1010.4 hPa Calm   -1607.7 km/h 98 % 0 mm 0 W/m2
07:51 4.2 °C 3.9 °C 1010.4 hPa Calm   -1607.7 km/h 98 % 0 mm 0 W/m2
07:56 4.2 °C 3.9 °C 1010.7 hPa Calm   -1607.7 km/h 98 % 0 mm 0 W/m2
08:01 4.2 °C 3.9 °C 1010.7 hPa Calm   -1607.7 km/h 98 % 0 mm 0 W/m2
08:06 4.2 °C 3.9 °C 1010.7 hPa Calm   -1607.7 km/h 98 % 0 mm 0 W/m2
08:11 4.2 °C 3.9 °C 1011.1 hPa Calm   -1607.7 km/h 98 % 0 mm 0 W/m2
08:16 4.2 °C 3.9 °C 1011.1 hPa Calm   -1607.7 km/h 98 % 0 mm 0 W/m2
08:21 4.2 °C 3.9 °C 1011.1 hPa Calm   -1607.7 km/h 98 % 0 mm 0 W/m2
08:26 4.2 °C 3.9 °C 1011.1 hPa Calm   -1607.7 km/h 98 % 0 mm 5 W/m2
08:31 4.2 °C 3.9 °C 1011.1 hPa Calm   -1607.7 km/h 98 % 0 mm 5 W/m2
08:36 4.2 °C 3.9 °C 1011.1 hPa Calm   -1607.7 km/h 98 % 0 mm 5 W/m2
08:41 4.2 °C 3.9 °C 1011.1 hPa Calm   -1607.7 km/h 98 % 0 mm 11 W/m2
08:46 4.2 °C 3.9 °C 1011.1 hPa Calm   -1607.7 km/h 98 % 0 mm 11 W/m2
08:51 4.2 °C 3.9 °C 1011.1 hPa Calm   -1607.7 km/h 98 % 0 mm 11 W/m2
08:56 4.3 °C 4 °C 1011.4 hPa Calm   -1607.7 km/h 98 % 0 mm 13 W/m2
09:01 4.3 °C 4 °C 1011.4 hPa Calm   -1607.7 km/h 98 % 0 mm 13 W/m2
09:06 4.3 °C 4 °C 1011.4 hPa Calm   -1607.7 km/h 98 % 0 mm 13 W/m2
09:11 4.3 °C 4.1 °C 1011.7 hPa Calm   -1607.7 km/h 98 % 0 mm 16 W/m2
09:16 4.3 °C 4.1 °C 1011.7 hPa Calm   -1607.7 km/h 98 % 0 mm 16 W/m2
09:21 4.3 °C 4.1 °C 1011.7 hPa Calm   -1607.7 km/h 98 % 0 mm 16 W/m2
09:26 4.4 °C 4.1 °C 1011.7 hPa Calm   -1607.7 km/h 98 % 0 mm 27 W/m2
09:31 4.4 °C 4.1 °C 1011.7 hPa Calm   -1607.7 km/h 98 % 0 mm 27 W/m2
09:36 4.4 °C 4.1 °C 1011.7 hPa Calm   -1607.7 km/h 98 % 0 mm 27 W/m2
09:41 4.5 °C 4.2 °C 1012.1 hPa Calm   -1607.7 km/h 98 % 0 mm 30 W/m2
09:46 4.5 °C 4.2 °C 1012.1 hPa Calm   -1607.7 km/h 98 % 0 mm 30 W/m2
09:51 4.5 °C 4.2 °C 1012.1 hPa Calm   -1607.7 km/h 98 % 0 mm 30 W/m2
09:56 4.6 °C 4.3 °C 1012.1 hPa Calm   -1607.7 km/h 98 % 0 mm 37 W/m2
10:01 4.6 °C 4.3 °C 1012.1 hPa Calm   -1607.7 km/h 98 % 0 mm 37 W/m2
10:06 4.6 °C 4.3 °C 1012.1 hPa Calm   -1607.7 km/h 98 % 0 mm 37 W/m2
10:11 4.7 °C 4.4 °C 1012.1 hPa Calm   -1607.7 km/h 98 % 0 mm 36 W/m2
10:16 4.7 °C 4.4 °C 1012.1 hPa Calm   -1607.7 km/h 98 % 0 mm 36 W/m2
10:21 4.7 °C 4.4 °C 1012.1 hPa Calm   -1607.7 km/h 98 % 0 mm 36 W/m2
10:26 4.8 °C 4.6 °C 1012.1 hPa Calm   -1607.7 km/h 98 % 0 mm 33 W/m2
10:31 4.8 °C 4.6 °C 1012.1 hPa Calm   -1607.7 km/h 98 % 0 mm 33 W/m2
10:36 4.8 °C 4.6 °C 1012.1 hPa Calm   -1607.7 km/h 98 % 0 mm 33 W/m2
10:41 4.8 °C 4.6 °C 1012.1 hPa Calm   -1607.7 km/h 98 % 0 mm 34 W/m2
10:46 4.8 °C 4.6 °C 1012.1 hPa Calm   -1607.7 km/h 98 % 0 mm 34 W/m2
10:51 4.8 °C 4.6 °C 1012.1 hPa Calm   -1607.7 km/h 98 % 0 mm 34 W/m2
10:56 4.9 °C 4.6 °C 1012.1 hPa Calm   -1607.7 km/h 98 % 0 mm 43 W/m2
11:01 4.9 °C 4.6 °C 1012.1 hPa Calm   -1607.7 km/h 98 % 0 mm 43 W/m2
11:06 4.9 °C 4.6 °C 1012.1 hPa Calm   -1607.7 km/h 98 % 0 mm 43 W/m2
11:11 4.9 °C 4.7 °C 1012.1 hPa NNE 1.6 km/h -1607.7 km/h 98 % 0 mm 51 W/m2
11:16 4.9 °C 4.7 °C 1012.1 hPa NNE 1.6 km/h -1607.7 km/h 98 % 0 mm 51 W/m2
11:21 4.9 °C 4.7 °C 1012.1 hPa NNE 1.6 km/h -1607.7 km/h 98 % 0 mm 51 W/m2
11:26 5.1 °C 4.8 °C 1012.1 hPa Calm   -1607.7 km/h 98 % 0 mm 54 W/m2
11:31 5.1 °C 4.8 °C 1012.1 hPa Calm   -1607.7 km/h 98 % 0 mm 54 W/m2
11:36 5.1 °C 4.8 °C 1012.1 hPa Calm   -1607.7 km/h 98 % 0 mm 54 W/m2
11:41 5.1 °C 4.8 °C 1012.1 hPa Calm   -1607.7 km/h 98 % 0 mm 63 W/m2
11:46 5.1 °C 4.8 °C 1012.1 hPa Calm   -1607.7 km/h 98 % 0 mm 63 W/m2
11:51 5.1 °C 4.8 °C 1012.1 hPa Calm   -1607.7 km/h 98 % 0 mm 63 W/m2
11:56 5.3 °C 5 °C 1012.1 hPa East 1.6 km/h -1607.7 km/h 98 % 0 mm 73 W/m2
12:01 5.3 °C 5 °C 1012.1 hPa East 1.6 km/h -1607.7 km/h 98 % 0 mm 73 W/m2
12:06 5.3 °C 5 °C 1012.1 hPa East 1.6 km/h -1607.7 km/h 98 % 0 mm 73 W/m2
12:11 5.4 °C 5.1 °C 1011.7 hPa Calm   -1607.7 km/h 98 % 0 mm 76 W/m2
12:16 5.4 °C 5.1 °C 1011.7 hPa Calm   -1607.7 km/h 98 % 0 mm 76 W/m2
12:21 5.4 °C 5.1 °C 1011.7 hPa Calm   -1607.7 km/h 98 % 0 mm 76 W/m2
12:26 5.6 °C 5.3 °C 1011.4 hPa ESE 3.2 km/h -1607.7 km/h 98 % 0 mm 91 W/m2
12:31 5.6 °C 5.3 °C 1011.4 hPa ESE 3.2 km/h -1607.7 km/h 98 % 0 mm 91 W/m2
12:36 5.6 °C 5.3 °C 1011.4 hPa ESE 3.2 km/h -1607.7 km/h 98 % 0 mm 91 W/m2
12:41 5.6 °C 5.3 °C 1011.4 hPa ESE 4.8 km/h -1607.7 km/h 98 % 0 mm 103 W/m2
12:46 5.6 °C 5.3 °C 1011.4 hPa ESE 4.8 km/h -1607.7 km/h 98 % 0 mm 103 W/m2
12:51 5.6 °C 5.3 °C 1011.4 hPa ESE 4.8 km/h -1607.7 km/h 98 % 0 mm 103 W/m2
12:56 5.7 °C 5.4 °C 1011.4 hPa ESE 6.4 km/h -1607.7 km/h 98 % 0 mm 116 W/m2
13:01 5.7 °C 5.4 °C 1011.4 hPa ESE 6.4 km/h -1607.7 km/h 98 % 0 mm 116 W/m2
13:06 5.7 °C 5.4 °C 1011.4 hPa ESE 6.4 km/h -1607.7 km/h 98 % 0 mm 116 W/m2
13:11 5.8 °C 5.5 °C 1011.1 hPa ESE 3.2 km/h -1607.7 km/h 98 % 0 mm 55 W/m2
13:16 5.8 °C 5.5 °C 1011.1 hPa ESE 3.2 km/h -1607.7 km/h 98 % 0 mm 55 W/m2
13:21 5.8 °C 5.5 °C 1011.1 hPa ESE 3.2 km/h -1607.7 km/h 98 % 0 mm 55 W/m2
13:26 5.8 °C 5.5 °C 1011.4 hPa ESE 4.8 km/h -1607.7 km/h 98 % 0 mm 73 W/m2
13:31 5.8 °C 5.5 °C 1011.4 hPa ESE 4.8 km/h -1607.7 km/h 98 % 0 mm 73 W/m2
13:36 5.8 °C 5.5 °C 1011.4 hPa ESE 4.8 km/h -1607.7 km/h 98 % 0 mm 73 W/m2
13:41 5.8 °C 5.6 °C 1011.1 hPa SE 4.8 km/h -1607.7 km/h 98 % 0 mm 56 W/m2
13:46 5.8 °C 5.6 °C 1011.1 hPa SE 4.8 km/h -1607.7 km/h 98 % 0 mm 56 W/m2
13:51 5.8 °C 5.6 °C 1011.1 hPa SE 4.8 km/h -1607.7 km/h 98 % 0 mm 56 W/m2
13:56 5.9 °C 5.6 °C 1011.4 hPa South 4.8 km/h -1607.7 km/h 98 % 0 mm 36 W/m2
14:01 5.9 °C 5.6 °C 1011.4 hPa South 4.8 km/h -1607.7 km/h 98 % 0 mm 36 W/m2
14:06 5.9 °C 5.6 °C 1011.4 hPa South 4.8 km/h -1607.7 km/h 98 % 0 mm 36 W/m2
14:11 5.9 °C 5.4 °C 1011.4 hPa SSE 6.4 km/h -1607.7 km/h 97 % 0 mm 28 W/m2
14:16 5.9 °C 5.4 °C 1011.4 hPa SSE 6.4 km/h -1607.7 km/h 97 % 0 mm 28 W/m2
14:21 5.9 °C 5.4 °C 1011.4 hPa SSE 6.4 km/h -1607.7 km/h 97 % 0 mm 28 W/m2
14:26 5.9 °C 5.4 °C 1011.4 hPa SSE 8 km/h -1607.7 km/h 97 % 0 mm 35 W/m2
14:31 5.9 °C 5.4 °C 1011.4 hPa SSE 8 km/h -1607.7 km/h 97 % 0 mm 35 W/m2
14:36 5.9 °C 5.4 °C 1011.4 hPa SSE 8 km/h -1607.7 km/h 97 % 0 mm 35 W/m2
14:41 5.9 °C 5.4 °C 1011.7 hPa South 6.4 km/h -1607.7 km/h 97 % 0 mm 19 W/m2
14:46 5.9 °C 5.4 °C 1011.7 hPa South 6.4 km/h -1607.7 km/h 97 % 0 mm 19 W/m2
14:51 5.9 °C 5.4 °C 1011.7 hPa South 6.4 km/h -1607.7 km/h 97 % 0 mm 19 W/m2
14:56 5.8 °C 5.2 °C 1011.7 hPa SE 9.7 km/h -1607.7 km/h 96 % 0 mm 17 W/m2
15:01 5.8 °C 5.2 °C 1011.7 hPa SE 9.7 km/h -1607.7 km/h 96 % 0 mm 17 W/m2
15:06 5.8 °C 5.2 °C 1011.7 hPa SE 9.7 km/h -1607.7 km/h 96 % 0 mm 17 W/m2
15:11 5.8 °C 5.2 °C 1011.7 hPa SE 8 km/h -1607.7 km/h 96 % 0 mm 18 W/m2
15:16 5.8 °C 5.2 °C 1011.7 hPa SE 8 km/h -1607.7 km/h 96 % 0 mm 18 W/m2
15:21 5.8 °C 5.2 °C 1011.7 hPa SE 8 km/h -1607.7 km/h 96 % 0 mm 18 W/m2
15:26 5.8 °C 5.1 °C 1011.4 hPa ESE 9.7 km/h -1607.7 km/h 95 % 0 mm 15 W/m2
15:31 5.8 °C 5.1 °C 1011.4 hPa ESE 9.7 km/h -1607.7 km/h 95 % 0 mm 15 W/m2
15:36 5.8 °C 5.1 °C 1011.4 hPa ESE 9.7 km/h -1607.7 km/h 95 % 0 mm 15 W/m2
15:41 5.7 °C 4.7 °C 1011.4 hPa SE 11.3 km/h -1607.7 km/h 93 % 0 mm 14 W/m2
15:46 5.7 °C 4.7 °C 1011.4 hPa SE 11.3 km/h -1607.7 km/h 93 % 0 mm 14 W/m2
15:51 5.7 °C 4.7 °C 1011.4 hPa SE 11.3 km/h -1607.7 km/h 93 % 0 mm 14 W/m2
15:56 5.8 °C 4.6 °C 1011.4 hPa SE 11.3 km/h -1607.7 km/h 92 % 0 mm 12 W/m2
16:01 5.8 °C 4.6 °C 1011.4 hPa SE 11.3 km/h -1607.7 km/h 92 % 0 mm 12 W/m2
16:06 5.8 °C 4.6 °C 1011.4 hPa SE 11.3 km/h -1607.7 km/h 92 % 0 mm 12 W/m2
16:11 5.9 °C 4.7 °C 1011.4 hPa ESE 8 km/h -1607.7 km/h 92 % 0 mm 9 W/m2
16:16 5.9 °C 4.7 °C 1011.4 hPa ESE 8 km/h -1607.7 km/h 92 % 0 mm 9 W/m2
16:21 5.9 °C 4.7 °C 1011.4 hPa ESE 8 km/h -1607.7 km/h 92 % 0 mm 9 W/m2
16:26 5.9 °C 4.7 °C 1011.7 hPa ESE 8 km/h -1607.7 km/h 92 % 0 mm 4 W/m2
16:31 5.9 °C 4.7 °C 1011.7 hPa ESE 8 km/h -1607.7 km/h 92 % 0 mm 4 W/m2
16:36 5.9 °C 4.7 °C 1011.7 hPa ESE 8 km/h -1607.7 km/h 92 % 0 mm 4 W/m2
16:41 5.9 °C 4.8 °C 1011.7 hPa ESE 9.7 km/h -1607.7 km/h 93 % 0 mm 0 W/m2
16:46 5.9 °C 4.8 °C 1011.7 hPa ESE 9.7 km/h -1607.7 km/h 93 % 0 mm 0 W/m2
16:51 5.9 °C 4.8 °C 1011.7 hPa ESE 9.7 km/h -1607.7 km/h 93 % 0 mm 0 W/m2
16:56 5.9 °C 4.8 °C 1012.1 hPa ESE 9.7 km/h -1607.7 km/h 93 % 0 mm 0 W/m2
17:01 5.9 °C 4.8 °C 1012.1 hPa ESE 9.7 km/h -1607.7 km/h 93 % 0 mm 0 W/m2
17:06 5.9 °C 4.8 °C 1012.1 hPa ESE 9.7 km/h -1607.7 km/h 93 % 0 mm 0 W/m2
17:11 5.8 °C 4.8 °C 1012.1 hPa SE 11.3 km/h -1607.7 km/h 93 % 0 mm 0 W/m2
17:16 5.8 °C 4.8 °C 1012.1 hPa SE 11.3 km/h -1607.7 km/h 93 % 0 mm 0 W/m2
17:21 5.8 °C 4.8 °C 1012.1 hPa SE 11.3 km/h -1607.7 km/h 93 % 0 mm 0 W/m2
17:26 5.8 °C 4.6 °C 1012.4 hPa SE 12.9 km/h -1607.7 km/h 92 % 0 mm 0 W/m2
17:31 5.8 °C 4.6 °C 1012.4 hPa SE 12.9 km/h -1607.7 km/h 92 % 0 mm 0 W/m2
17:36 5.8 °C 4.6 °C 1012.4 hPa SE 12.9 km/h -1607.7 km/h 92 % 0 mm 0 W/m2
17:41 5.8 °C 4.6 °C 1012.4 hPa SE 12.9 km/h -1607.7 km/h 92 % 0 mm 0 W/m2
17:46 5.8 °C 4.6 °C 1012.4 hPa SE 12.9 km/h -1607.7 km/h 92 % 0 mm 0 W/m2
17:51 5.8 °C 4.6 °C 1012.4 hPa SE 12.9 km/h -1607.7 km/h 92 % 0 mm 0 W/m2
17:56 5.8 °C 4.4 °C 1012.4 hPa SE 12.9 km/h -1607.7 km/h 91 % 0 mm 0 W/m2
18:01 5.8 °C 4.4 °C 1012.4 hPa SE 12.9 km/h -1607.7 km/h 91 % 0 mm 0 W/m2
18:06 5.8 °C 4.4 °C 1012.4 hPa SE 12.9 km/h -1607.7 km/h 91 % 0 mm 0 W/m2
18:11 5.7 °C 4.4 °C 1012.4 hPa SE 14.5 km/h -1607.7 km/h 91 % 0 mm 0 W/m2
18:16 5.7 °C 4.4 °C 1012.4 hPa SE 14.5 km/h -1607.7 km/h 91 % 0 mm 0 W/m2
18:21 5.7 °C 4.4 °C 1012.4 hPa SE 14.5 km/h -1607.7 km/h 91 % 0 mm 0 W/m2
18:26 5.7 °C 4.2 °C 1012.8 hPa SE 16.1 km/h -1607.7 km/h 90 % 0 mm 0 W/m2
18:31 5.7 °C 4.2 °C 1012.8 hPa SE 16.1 km/h -1607.7 km/h 90 % 0 mm 0 W/m2
18:36 5.7 °C 4.2 °C 1012.8 hPa SE 16.1 km/h -1607.7 km/h 90 % 0 mm 0 W/m2
18:41 5.6 °C 4.1 °C 1012.8 hPa SE 14.5 km/h -1607.7 km/h 90 % 0 mm 0 W/m2
18:46 5.6 °C 4.1 °C 1012.8 hPa SE 14.5 km/h -1607.7 km/h 90 % 0 mm 0 W/m2
18:51 5.6 °C 4.1 °C 1012.8 hPa SE 14.5 km/h -1607.7 km/h 90 % 0 mm 0 W/m2
18:56 5.6 °C 4.1 °C 1012.8 hPa SE 14.5 km/h -1607.7 km/h 90 % 0 mm 0 W/m2
19:01 5.6 °C 4.1 °C 1012.8 hPa SE 14.5 km/h -1607.7 km/h 90 % 0 mm 0 W/m2
19:06 5.6 °C 4.1 °C 1012.8 hPa SE 14.5 km/h -1607.7 km/h 90 % 0 mm 0 W/m2
19:11 5.6 °C 4.1 °C 1012.8 hPa SE 14.5 km/h -1607.7 km/h 90 % 0 mm 0 W/m2
19:16 5.6 °C 4.1 °C 1012.8 hPa SE 14.5 km/h -1607.7 km/h 90 % 0 mm 0 W/m2
19:21 5.6 °C 4.1 °C 1012.8 hPa SE 14.5 km/h -1607.7 km/h 90 % 0 mm 0 W/m2
19:26 5.5 °C 4 °C 1012.8 hPa SE 12.9 km/h -1607.7 km/h 90 % 0 mm 0 W/m2
19:31 5.5 °C 4 °C 1012.8 hPa SE 12.9 km/h -1607.7 km/h 90 % 0 mm 0 W/m2
19:36 5.5 °C 4 °C 1012.8 hPa SE 12.9 km/h -1607.7 km/h 90 % 0 mm 0 W/m2
19:41 5.4 °C 3.9 °C 1012.4 hPa SE 11.3 km/h -1607.7 km/h 90 % 0 mm 0 W/m2
19:46 5.4 °C 3.9 °C 1012.4 hPa SE 11.3 km/h -1607.7 km/h 90 % 0 mm 0 W/m2
19:51 5.4 °C 3.9 °C 1012.4 hPa SE 11.3 km/h -1607.7 km/h 90 % 0 mm 0 W/m2
19:56 5.4 °C 3.9 °C 1012.8 hPa ESE 9.7 km/h -1607.7 km/h 90 % 0 mm 0 W/m2
20:01 5.4 °C 3.9 °C 1012.8 hPa ESE 9.7 km/h -1607.7 km/h 90 % 0 mm 0 W/m2
20:06 5.4 °C 3.9 °C 1012.8 hPa ESE 9.7 km/h -1607.7 km/h 90 % 0 mm 0 W/m2
20:11 5.3 °C 4 °C 1012.4 hPa SE 9.7 km/h -1607.7 km/h 91 % 0 mm 0 W/m2
20:16 5.3 °C 4 °C 1012.4 hPa SE 9.7 km/h -1607.7 km/h 91 % 0 mm 0 W/m2
20:21 5.3 °C 4 °C 1012.4 hPa SE 9.7 km/h -1607.7 km/h 91 % 0 mm 0 W/m2
20:26 5.3 °C 3.9 °C 1012.4 hPa ESE 11.3 km/h -1607.7 km/h 91 % 0 mm 0 W/m2
20:31 5.3 °C 3.9 °C 1012.4 hPa ESE 11.3 km/h -1607.7 km/h 91 % 0 mm 0 W/m2
20:36 5.3 °C 3.9 °C 1012.4 hPa ESE 11.3 km/h -1607.7 km/h 91 % 0 mm 0 W/m2
20:41 5.2 °C 3.9 °C 1012.4 hPa ESE 9.7 km/h -1607.7 km/h 91 % 0 mm 0 W/m2
20:46 5.2 °C 3.9 °C 1012.4 hPa ESE 9.7 km/h -1607.7 km/h 91 % 0 mm 0 W/m2
20:51 5.2 °C 3.9 °C 1012.4 hPa ESE 9.7 km/h -1607.7 km/h 91 % 0 mm 0 W/m2
20:56 5.2 °C 3.8 °C 1012.4 hPa ESE 11.3 km/h -1607.7 km/h 91 % 0 mm 0 W/m2
21:01 5.2 °C 3.8 °C 1012.4 hPa ESE 11.3 km/h -1607.7 km/h 91 % 0 mm 0 W/m2
21:06 5.2 °C 3.8 °C 1012.4 hPa ESE 11.3 km/h -1607.7 km/h 91 % 0 mm 0 W/m2
21:11 5.1 °C 3.9 °C 1012.4 hPa ESE 8 km/h -1607.7 km/h 92 % 0 mm 0 W/m2
21:16 5.1 °C 3.9 °C 1012.4 hPa ESE 8 km/h -1607.7 km/h 92 % 0 mm 0 W/m2
21:21 5.1 °C 3.9 °C 1012.4 hPa ESE 8 km/h -1607.7 km/h 92 % 0 mm 0 W/m2
21:26 5.1 °C 3.9 °C 1012.8 hPa SE 9.7 km/h -1607.7 km/h 92 % 0 mm 0 W/m2
21:31 5.1 °C 3.9 °C 1012.8 hPa SE 9.7 km/h -1607.7 km/h 92 % 0 mm 0 W/m2
21:36 5.1 °C 3.9 °C 1012.8 hPa SE 9.7 km/h -1607.7 km/h 92 % 0 mm 0 W/m2
21:41 5 °C 3.8 °C 1012.4 hPa SE 9.7 km/h -1607.7 km/h 92 % 0 mm 0 W/m2
21:46 5 °C 3.8 °C 1012.4 hPa SE 9.7 km/h -1607.7 km/h 92 % 0 mm 0 W/m2
21:51 5 °C 3.8 °C 1012.4 hPa SE 9.7 km/h -1607.7 km/h 92 % 0 mm 0 W/m2
21:56 4.9 °C 3.9 °C 1012.4 hPa SE 12.9 km/h -1607.7 km/h 93 % 0 mm 0 W/m2
22:01 4.9 °C 3.9 °C 1012.4 hPa SE 12.9 km/h -1607.7 km/h 93 % 0 mm 0 W/m2
22:06 4.9 °C 3.9 °C 1012.4 hPa SE 12.9 km/h -1607.7 km/h 93 % 0 mm 0 W/m2
22:11 4.9 °C 3.8 °C 1012.1 hPa SE 11.3 km/h -1607.7 km/h 93 % 0 mm 0 W/m2
22:16 4.9 °C 3.8 °C 1012.1 hPa SE 11.3 km/h -1607.7 km/h 93 % 0 mm 0 W/m2
22:21 4.9 °C 3.8 °C 1012.1 hPa SE 11.3 km/h -1607.7 km/h 93 % 0 mm 0 W/m2
22:26 4.8 °C 3.9 °C 1012.1 hPa SE 12.9 km/h -1607.7 km/h 94 % 0 mm 0 W/m2
22:31 4.8 °C 3.9 °C 1012.1 hPa SE 12.9 km/h -1607.7 km/h 94 % 0 mm 0 W/m2
22:36 4.8 °C 3.9 °C 1012.1 hPa SE 12.9 km/h -1607.7 km/h 94 % 0 mm 0 W/m2
22:41 4.7 °C 3.8 °C 1012.1 hPa SE 16.1 km/h -1607.7 km/h 94 % 0 mm 0 W/m2
22:46 4.7 °C 3.8 °C 1012.1 hPa SE 16.1 km/h -1607.7 km/h 94 % 0 mm 0 W/m2
22:51 4.7 °C 3.8 °C 1012.1 hPa SE 16.1 km/h -1607.7 km/h 94 % 0 mm 0 W/m2
22:56 4.7 °C 3.6 °C 1012.1 hPa SE 14.5 km/h -1607.7 km/h 93 % 0 mm 0 W/m2
23:01 4.7 °C 3.6 °C 1012.1 hPa SE 14.5 km/h -1607.7 km/h 93 % 0 mm 0 W/m2
23:06 4.7 °C 3.6 °C 1012.1 hPa SE 14.5 km/h -1607.7 km/h 93 % 0 mm 0 W/m2
23:11 4.7 °C 3.6 °C 1012.1 hPa SE 14.5 km/h -1607.7 km/h 93 % 0 mm 0 W/m2
23:16 4.7 °C 3.6 °C 1012.1 hPa SE 14.5 km/h -1607.7 km/h 93 % 0 mm 0 W/m2
23:21 4.7 °C 3.6 °C 1012.1 hPa SE 14.5 km/h -1607.7 km/h 93 % 0 mm 0 W/m2
23:26 4.6 °C 3.6 °C 1012.1 hPa SE 12.9 km/h -1607.7 km/h 93 % 0 mm 0 W/m2
23:31 4.6 °C 3.6 °C 1012.1 hPa SE 12.9 km/h -1607.7 km/h 93 % 0 mm 0 W/m2
23:36 4.6 °C 3.6 °C 1012.1 hPa SE 12.9 km/h -1607.7 km/h 93 % 0 mm 0 W/m2
23:41 4.6 °C 3.6 °C 1012.4 hPa SE 12.9 km/h -1607.7 km/h 93 % 0 mm 0 W/m2
23:46 4.6 °C 3.6 °C 1012.4 hPa SE 12.9 km/h -1607.7 km/h 93 % 0 mm 0 W/m2
23:51 4.6 °C 3.6 °C 1012.4 hPa SE 12.9 km/h -1607.7 km/h 93 % 0 mm 0 W/m2
23:56 4.6 °C 3.5 °C 1012.1 hPa SE 12.9 km/h -1607.7 km/h 93 % 0 mm 0 W/m2
Delerius-Weather
Compliments of Weather Underground - 2.25 mb

Data updates at regular intervals.